Angel Fire, New Mexico
Current Conditions -  °F | °C
As of 6:35 AM on Friday 31 Oct 2014 (Local Time) from KAXX Reporting Station
Clear Clear  
Wind Chill: 15°   Ceiling: Unl
Heat Index: 15°   Visibility: 10mi
Dew Point: 10°   Wind: 0mph
Humidity: 83%   Direction: NA
Pressure: 30.48"   Gusts: NA
Location:  36.39°N, 105.29°W
Report Text: KAXX 311235Z AUTO 00000KT 10SM CLR M10/M12 A3048 RMK AO2 T10971121
Loading
Personal Weather Stations






























Interactive Weather Map
Tropical Storm Tracking
New forecast layout! Learn more

10-Day Weather Forecast

Advertisements
Track Severe Weather on mobile